sensor_id;sensor_type;location;lat;lon;timestamp;temperature;humidity
69895;DHT22;57172;52.034;5.090;2023-06-26T00:00:04;26.20;51.20
69895;DHT22;57172;52.034;5.090;2023-06-26T00:02:31;26.10;51.50
69895;DHT22;57172;52.034;5.090;2023-06-26T00:05:01;26.00;51.80
69895;DHT22;57172;52.034;5.090;2023-06-26T00:07:31;26.00;51.90
69895;DHT22;57172;52.034;5.090;2023-06-26T00:10:01;25.90;52.10
69895;DHT22;57172;52.034;5.090;2023-06-26T00:12:30;25.80;52.20
69895;DHT22;57172;52.034;5.090;2023-06-26T00:14:57;25.80;52.30
69895;DHT22;57172;52.034;5.090;2023-06-26T00:17:24;25.80;52.30
69895;DHT22;57172;52.034;5.090;2023-06-26T00:19:51;25.80;52.40
69895;DHT22;57172;52.034;5.090;2023-06-26T00:22:18;25.80;52.50
69895;DHT22;57172;52.034;5.090;2023-06-26T00:24:45;25.80;52.60
69895;DHT22;57172;52.034;5.090;2023-06-26T00:27:12;25.70;52.60
69895;DHT22;57172;52.034;5.090;2023-06-26T00:29:39;25.70;52.70
69895;DHT22;57172;52.034;5.090;2023-06-26T00:32:06;25.60;52.80
69895;DHT22;57172;52.034;5.090;2023-06-26T00:34:35;25.60;52.90
69895;DHT22;57172;52.034;5.090;2023-06-26T00:37:02;25.60;53.40
69895;DHT22;57172;52.034;5.090;2023-06-26T00:39:30;25.50;53.60
69895;DHT22;57172;52.034;5.090;2023-06-26T00:41:56;25.40;54.00
69895;DHT22;57172;52.034;5.090;2023-06-26T00:44:23;25.30;54.50
69895;DHT22;57172;52.034;5.090;2023-06-26T00:46:52;25.20;54.60
69895;DHT22;57172;52.034;5.090;2023-06-26T00:49:19;25.00;55.00
69895;DHT22;57172;52.034;5.090;2023-06-26T00:51:46;24.90;55.40
69895;DHT22;57172;52.034;5.090;2023-06-26T00:54:13;24.70;55.60
69895;DHT22;57172;52.034;5.090;2023-06-26T00:56:46;24.60;55.70
69895;DHT22;57172;52.034;5.090;2023-06-26T00:59:14;24.60;55.90
69895;DHT22;57172;52.034;5.090;2023-06-26T01:01:41;24.50;55.90
69895;DHT22;57172;52.034;5.090;2023-06-26T01:04:09;24.40;56.20
69895;DHT22;57172;52.034;5.090;2023-06-26T01:06:46;24.30;56.30
69895;DHT22;57172;52.034;5.090;2023-06-26T01:09:19;24.30;56.60
69895;DHT22;57172;52.034;5.090;2023-06-26T01:11:50;24.20;57.00
69895;DHT22;57172;52.034;5.090;2023-06-26T01:14:17;24.10;57.20
69895;DHT22;57172;52.034;5.090;2023-06-26T01:16:45;24.00;57.50
69895;DHT22;57172;52.034;5.090;2023-06-26T01:19:20;23.90;57.90
69895;DHT22;57172;52.034;5.090;2023-06-26T01:22:09;23.70;58.40
69895;DHT22;57172;52.034;5.090;2023-06-26T01:25:10;23.60;58.70
69895;DHT22;57172;52.034;5.090;2023-06-26T01:27:38;23.50;58.90
69895;DHT22;57172;52.034;5.090;2023-06-26T01:30:07;23.50;59.20
69895;DHT22;57172;52.034;5.090;2023-06-26T01:32:35;23.40;59.50
69895;DHT22;57172;52.034;5.090;2023-06-26T01:35:05;23.30;59.70
69895;DHT22;57172;52.034;5.090;2023-06-26T01:37:32;23.20;59.70
69895;DHT22;57172;52.034;5.090;2023-06-26T01:39:59;23.20;59.80
69895;DHT22;57172;52.034;5.090;2023-06-26T01:42:26;23.10;59.90
69895;DHT22;57172;52.034;5.090;2023-06-26T01:44:55;23.10;59.90
69895;DHT22;57172;52.034;5.090;2023-06-26T01:47:24;23.10;59.70
69895;DHT22;57172;52.034;5.090;2023-06-26T01:49:57;23.00;59.80
69895;DHT22;57172;52.034;5.090;2023-06-26T01:52:46;23.00;59.90
69895;DHT22;57172;52.034;5.090;2023-06-26T01:55:24;22.90;60.00
69895;DHT22;57172;52.034;5.090;2023-06-26T01:57:56;22.80;60.10
69895;DHT22;57172;52.034;5.090;2023-06-26T02:00:24;22.70;60.30
69895;DHT22;57172;52.034;5.090;2023-06-26T02:02:51;22.60;60.60
69895;DHT22;57172;52.034;5.090;2023-06-26T02:05:19;22.60;61.10
69895;DHT22;57172;52.034;5.090;2023-06-26T02:07:46;22.50;61.30
69895;DHT22;57172;52.034;5.090;2023-06-26T02:10:13;22.40;61.30
69895;DHT22;57172;52.034;5.090;2023-06-26T02:12:41;22.40;61.30
69895;DHT22;57172;52.034;5.090;2023-06-26T02:15:08;22.40;61.70
69895;DHT22;57172;52.034;5.090;2023-06-26T02:17:35;22.40;61.90
69895;DHT22;57172;52.034;5.090;2023-06-26T02:20:02;22.40;61.80
69895;DHT22;57172;52.034;5.090;2023-06-26T02:22:29;22.40;62.00
69895;DHT22;57172;52.034;5.090;2023-06-26T02:24:56;22.40;62.40
69895;DHT22;57172;52.034;5.090;2023-06-26T02:27:25;22.40;62.60
69895;DHT22;57172;52.034;5.090;2023-06-26T02:29:52;22.30;62.70
69895;DHT22;57172;52.034;5.090;2023-06-26T02:32:19;22.30;62.70
69895;DHT22;57172;52.034;5.090;2023-06-26T02:34:49;22.30;63.00
69895;DHT22;57172;52.034;5.090;2023-06-26T02:37:18;22.30;63.20
69895;DHT22;57172;52.034;5.090;2023-06-26T02:39:46;22.20;63.40
69895;DHT22;57172;52.034;5.090;2023-06-26T02:42:14;22.20;63.40
69895;DHT22;57172;52.034;5.090;2023-06-26T02:44:40;22.20;63.50
69895;DHT22;57172;52.034;5.090;2023-06-26T02:47:07;22.20;63.90
69895;DHT22;57172;52.034;5.090;2023-06-26T02:49:38;22.10;63.90
69895;DHT22;57172;52.034;5.090;2023-06-26T02:52:06;22.10;63.90
69895;DHT22;57172;52.034;5.090;2023-06-26T02:54:33;22.10;64.10
69895;DHT22;57172;52.034;5.090;2023-06-26T02:57:03;22.10;64.20
69895;DHT22;57172;52.034;5.090;2023-06-26T02:59:31;22.00;64.30
69895;DHT22;57172;52.034;5.090;2023-06-26T03:01:59;22.00;64.60
69895;DHT22;57172;52.034;5.090;2023-06-26T03:04:31;22.00;64.70
69895;DHT22;57172;52.034;5.090;2023-06-26T03:06:59;21.90;65.10
69895;DHT22;57172;52.034;5.090;2023-06-26T03:09:26;21.90;65.00
69895;DHT22;57172;52.034;5.090;2023-06-26T03:11:54;21.80;65.20
69895;DHT22;57172;52.034;5.090;2023-06-26T03:14:22;21.80;65.40
69895;DHT22;57172;52.034;5.090;2023-06-26T03:16:49;21.70;65.50
69895;DHT22;57172;52.034;5.090;2023-06-26T03:19:18;21.60;65.50
69895;DHT22;57172;52.034;5.090;2023-06-26T03:22:13;21.60;65.60
69895;DHT22;57172;52.034;5.090;2023-06-26T03:24:40;21.60;65.80
69895;DHT22;57172;52.034;5.090;2023-06-26T03:27:07;21.50;66.00
69895;DHT22;57172;52.034;5.090;2023-06-26T03:29:36;21.50;66.20
69895;DHT22;57172;52.034;5.090;2023-06-26T03:32:03;21.50;66.10
69895;DHT22;57172;52.034;5.090;2023-06-26T03:34:30;21.50;66.10
69895;DHT22;57172;52.034;5.090;2023-06-26T03:36:58;21.50;66.30
69895;DHT22;57172;52.034;5.090;2023-06-26T03:39:24;21.50;66.30
69895;DHT22;57172;52.034;5.090;2023-06-26T03:41:51;21.50;66.40
69895;DHT22;57172;52.034;5.090;2023-06-26T03:44:20;21.50;66.30
69895;DHT22;57172;52.034;5.090;2023-06-26T03:46:49;21.50;66.40
69895;DHT22;57172;52.034;5.090;2023-06-26T03:49:16;21.50;66.30
69895;DHT22;57172;52.034;5.090;2023-06-26T03:51:44;21.50;66.20
69895;DHT22;57172;52.034;5.090;2023-06-26T03:54:11;21.50;66.10
69895;DHT22;57172;52.034;5.090;2023-06-26T03:56:38;21.60;65.90
69895;DHT22;57172;52.034;5.090;2023-06-26T03:59:05;21.60;65.80
69895;DHT22;57172;52.034;5.090;2023-06-26T04:01:32;21.60;65.80
69895;DHT22;57172;52.034;5.090;2023-06-26T04:04:00;21.50;65.80
69895;DHT22;57172;52.034;5.090;2023-06-26T04:06:27;21.40;65.60
69895;DHT22;57172;52.034;5.090;2023-06-26T04:08:54;21.30;65.50
69895;DHT22;57172;52.034;5.090;2023-06-26T04:11:21;21.30;65.40
69895;DHT22;57172;52.034;5.090;2023-06-26T04:13:48;21.20;65.50
69895;DHT22;57172;52.034;5.090;2023-06-26T04:16:15;21.20;65.50
69895;DHT22;57172;52.034;5.090;2023-06-26T04:18:42;21.20;65.50
69895;DHT22;57172;52.034;5.090;2023-06-26T04:21:10;21.10;65.50
69895;DHT22;57172;52.034;5.090;2023-06-26T04:23:39;21.10;65.50
69895;DHT22;57172;52.034;5.090;2023-06-26T04:26:07;21.10;65.50
69895;DHT22;57172;52.034;5.090;2023-06-26T04:28:35;21.10;65.50
69895;DHT22;57172;52.034;5.090;2023-06-26T04:31:02;21.10;65.50
69895;DHT22;57172;52.034;5.090;2023-06-26T04:33:30;21.10;65.40
69895;DHT22;57172;52.034;5.090;2023-06-26T04:35:57;21.10;65.40
69895;DHT22;57172;52.034;5.090;2023-06-26T04:38:24;21.20;65.30
69895;DHT22;57172;52.034;5.090;2023-06-26T04:40:51;21.30;65.40
69895;DHT22;57172;52.034;5.090;2023-06-26T04:43:18;21.30;65.20
69895;DHT22;57172;52.034;5.090;2023-06-26T04:45:44;21.30;65.20
69895;DHT22;57172;52.034;5.090;2023-06-26T04:48:11;21.30;65.20
69895;DHT22;57172;52.034;5.090;2023-06-26T04:50:39;21.30;65.20
69895;DHT22;57172;52.034;5.090;2023-06-26T04:53:07;21.30;65.10
69895;DHT22;57172;52.034;5.090;2023-06-26T04:55:34;21.30;64.90
69895;DHT22;57172;52.034;5.090;2023-06-26T04:58:04;21.20;64.90
69895;DHT22;57172;52.034;5.090;2023-06-26T05:00:31;21.20;64.90
69895;DHT22;57172;52.034;5.090;2023-06-26T05:02:59;21.20;64.90
69895;DHT22;57172;52.034;5.090;2023-06-26T05:05:28;21.20;64.90
69895;DHT22;57172;52.034;5.090;2023-06-26T05:07:56;21.10;65.00
69895;DHT22;57172;52.034;5.090;2023-06-26T05:10:23;21.10;65.00
69895;DHT22;57172;52.034;5.090;2023-06-26T05:12:50;21.10;65.20
69895;DHT22;57172;52.034;5.090;2023-06-26T05:15:17;21.10;65.20
69895;DHT22;57172;52.034;5.090;2023-06-26T05:17:44;21.10;65.40
69895;DHT22;57172;52.034;5.090;2023-06-26T05:20:11;21.10;65.50
69895;DHT22;57172;52.034;5.090;2023-06-26T05:22:39;21.10;65.60
69895;DHT22;57172;52.034;5.090;2023-06-26T05:25:09;21.20;65.60
69895;DHT22;57172;52.034;5.090;2023-06-26T05:27:36;21.20;65.60
69895;DHT22;57172;52.034;5.090;2023-06-26T05:30:04;21.30;65.10
69895;DHT22;57172;52.034;5.090;2023-06-26T05:32:34;21.30;64.80
69895;DHT22;57172;52.034;5.090;2023-06-26T05:35:02;21.30;64.70
69895;DHT22;57172;52.034;5.090;2023-06-26T05:37:31;21.20;64.80
69895;DHT22;57172;52.034;5.090;2023-06-26T05:39:59;21.10;64.80
69895;DHT22;57172;52.034;5.090;2023-06-26T05:42:29;21.10;64.90
69895;DHT22;57172;52.034;5.090;2023-06-26T05:44:56;21.10;65.10
69895;DHT22;57172;52.034;5.090;2023-06-26T05:47:23;21.10;65.10
69895;DHT22;57172;52.034;5.090;2023-06-26T05:49:50;21.10;65.20
69895;DHT22;57172;52.034;5.090;2023-06-26T05:52:17;21.10;65.30
69895;DHT22;57172;52.034;5.090;2023-06-26T05:54:44;21.10;65.40
69895;DHT22;57172;52.034;5.090;2023-06-26T05:57:12;21.10;65.30
69895;DHT22;57172;52.034;5.090;2023-06-26T05:59:43;21.00;65.50
69895;DHT22;57172;52.034;5.090;2023-06-26T06:02:11;21.10;65.50
69895;DHT22;57172;52.034;5.090;2023-06-26T06:04:38;21.10;65.50
69895;DHT22;57172;52.034;5.090;2023-06-26T06:07:05;21.00;65.50
69895;DHT22;57172;52.034;5.090;2023-06-26T06:09:32;21.10;65.50
69895;DHT22;57172;52.034;5.090;2023-06-26T06:11:59;21.20;65.60
69895;DHT22;57172;52.034;5.090;2023-06-26T06:14:27;21.20;65.60
69895;DHT22;57172;52.034;5.090;2023-06-26T06:16:54;21.40;65.60
69895;DHT22;57172;52.034;5.090;2023-06-26T06:19:22;21.40;65.40
69895;DHT22;57172;52.034;5.090;2023-06-26T06:21:49;21.40;65.20
69895;DHT22;57172;52.034;5.090;2023-06-26T06:24:17;21.50;64.80
69895;DHT22;57172;52.034;5.090;2023-06-26T06:26:44;21.40;64.60
69895;DHT22;57172;52.034;5.090;2023-06-26T06:29:10;21.50;64.60
69895;DHT22;57172;52.034;5.090;2023-06-26T06:31:37;21.50;64.80
69895;DHT22;57172;52.034;5.090;2023-06-26T06:34:04;21.60;64.60
69895;DHT22;57172;52.034;5.090;2023-06-26T06:36:31;21.70;64.90
69895;DHT22;57172;52.034;5.090;2023-06-26T06:38:58;21.80;64.50
69895;DHT22;57172;52.034;5.090;2023-06-26T06:41:25;21.90;64.40
69895;DHT22;57172;52.034;5.090;2023-06-26T06:43:52;22.00;64.10
69895;DHT22;57172;52.034;5.090;2023-06-26T06:46:19;22.10;63.80
69895;DHT22;57172;52.034;5.090;2023-06-26T06:48:46;22.10;63.30
69895;DHT22;57172;52.034;5.090;2023-06-26T06:51:13;22.00;63.20
69895;DHT22;57172;52.034;5.090;2023-06-26T06:53:40;22.00;63.20
69895;DHT22;57172;52.034;5.090;2023-06-26T06:56:07;22.00;63.00
69895;DHT22;57172;52.034;5.090;2023-06-26T06:58:34;21.90;62.70
69895;DHT22;57172;52.034;5.090;2023-06-26T07:01:02;21.80;62.70
69895;DHT22;57172;52.034;5.090;2023-06-26T07:03:31;21.80;63.30
69895;DHT22;57172;52.034;5.090;2023-06-26T07:05:58;22.00;63.60
69895;DHT22;57172;52.034;5.090;2023-06-26T07:08:25;22.20;63.30
69895;DHT22;57172;52.034;5.090;2023-06-26T07:10:52;22.40;62.30
69895;DHT22;57172;52.034;5.090;2023-06-26T07:13:19;22.50;61.90
69895;DHT22;57172;52.034;5.090;2023-06-26T07:15:46;22.60;61.90
69895;DHT22;57172;52.034;5.090;2023-06-26T07:18:14;22.70;61.30
69895;DHT22;57172;52.034;5.090;2023-06-26T07:20:41;22.60;61.20
69895;DHT22;57172;52.034;5.090;2023-06-26T07:23:09;22.70;60.90
69895;DHT22;57172;52.034;5.090;2023-06-26T07:25:36;22.60;60.20
69895;DHT22;57172;52.034;5.090;2023-06-26T07:28:10;22.50;59.90
69895;DHT22;57172;52.034;5.090;2023-06-26T07:30:37;22.30;60.30
69895;DHT22;57172;52.034;5.090;2023-06-26T07:33:05;22.30;60.30
69895;DHT22;57172;52.034;5.090;2023-06-26T07:35:32;22.30;60.50
69895;DHT22;57172;52.034;5.090;2023-06-26T07:37:59;22.40;60.40
69895;DHT22;57172;52.034;5.090;2023-06-26T07:40:26;22.40;60.10
69895;DHT22;57172;52.034;5.090;2023-06-26T07:42:53;22.30;59.90
69895;DHT22;57172;52.034;5.090;2023-06-26T07:45:20;22.30;59.90
69895;DHT22;57172;52.034;5.090;2023-06-26T07:47:50;22.40;60.10
69895;DHT22;57172;52.034;5.090;2023-06-26T07:50:17;22.60;59.60
69895;DHT22;57172;52.034;5.090;2023-06-26T07:52:48;22.60;59.20
69895;DHT22;57172;52.034;5.090;2023-06-26T07:55:15;22.60;59.30
69895;DHT22;57172;52.034;5.090;2023-06-26T07:57:42;22.70;59.20
69895;DHT22;57172;52.034;5.090;2023-06-26T08:00:09;22.80;59.00
69895;DHT22;57172;52.034;5.090;2023-06-26T08:02:42;22.90;58.70
69895;DHT22;57172;52.034;5.090;2023-06-26T08:05:09;22.90;58.20
69895;DHT22;57172;52.034;5.090;2023-06-26T08:07:36;22.80;57.90
69895;DHT22;57172;52.034;5.090;2023-06-26T08:10:03;22.70;57.80
69895;DHT22;57172;52.034;5.090;2023-06-26T08:12:30;22.70;57.80
69895;DHT22;57172;52.034;5.090;2023-06-26T08:14:57;22.80;57.90
69895;DHT22;57172;52.034;5.090;2023-06-26T08:17:24;22.90;57.60
69895;DHT22;57172;52.034;5.090;2023-06-26T08:19:54;23.00;57.40
69895;DHT22;57172;52.034;5.090;2023-06-26T08:22:21;23.10;57.20
69895;DHT22;57172;52.034;5.090;2023-06-26T08:24:47;23.10;56.60
69895;DHT22;57172;52.034;5.090;2023-06-26T08:27:14;23.10;56.50
69895;DHT22;57172;52.034;5.090;2023-06-26T08:29:41;23.10;55.80
69895;DHT22;57172;52.034;5.090;2023-06-26T08:32:08;23.00;56.10
69895;DHT22;57172;52.034;5.090;2023-06-26T08:34:35;23.00;56.30
69895;DHT22;57172;52.034;5.090;2023-06-26T08:37:02;23.00;56.20
69895;DHT22;57172;52.034;5.090;2023-06-26T08:39:30;23.10;56.60
69895;DHT22;57172;52.034;5.090;2023-06-26T08:41:57;23.20;55.90
69895;DHT22;57172;52.034;5.090;2023-06-26T08:44:24;23.20;55.60
69895;DHT22;57172;52.034;5.090;2023-06-26T08:46:51;23.20;55.50
69895;DHT22;57172;52.034;5.090;2023-06-26T08:49:21;23.30;55.70
69895;DHT22;57172;52.034;5.090;2023-06-26T08:51:57;23.30;55.40
69895;DHT22;57172;52.034;5.090;2023-06-26T08:54:34;23.40;55.40
69895;DHT22;57172;52.034;5.090;2023-06-26T08:57:04;23.60;56.10
69895;DHT22;57172;52.034;5.090;2023-06-26T08:59:32;24.00;55.20
69895;DHT22;57172;52.034;5.090;2023-06-26T09:01:59;24.30;54.30
69895;DHT22;57172;52.034;5.090;2023-06-26T09:04:26;24.70;54.90
69895;DHT22;57172;52.034;5.090;2023-06-26T09:06:53;25.20;53.10
69895;DHT22;57172;52.034;5.090;2023-06-26T09:09:21;25.60;52.70
69895;DHT22;57172;52.034;5.090;2023-06-26T09:11:47;25.90;50.90
69895;DHT22;57172;52.034;5.090;2023-06-26T09:14:15;26.10;50.60
69895;DHT22;57172;52.034;5.090;2023-06-26T09:16:42;26.30;49.30
69895;DHT22;57172;52.034;5.090;2023-06-26T09:19:10;26.30;49.50
69895;DHT22;57172;52.034;5.090;2023-06-26T09:21:43;26.40;48.60
69895;DHT22;57172;52.034;5.090;2023-06-26T09:24:10;26.10;48.10
69895;DHT22;57172;52.034;5.090;2023-06-26T09:26:38;25.90;48.50
69895;DHT22;57172;52.034;5.090;2023-06-26T09:29:06;26.10;49.00
69895;DHT22;57172;52.034;5.090;2023-06-26T09:31:33;26.30;48.80
69895;DHT22;57172;52.034;5.090;2023-06-26T09:34:08;26.60;48.00
69895;DHT22;57172;52.034;5.090;2023-06-26T09:36:36;26.90;47.80
69895;DHT22;57172;52.034;5.090;2023-06-26T09:39:07;27.40;47.10
69895;DHT22;57172;52.034;5.090;2023-06-26T09:41:39;27.90;46.40
69895;DHT22;57172;52.034;5.090;2023-06-26T09:44:07;28.30;45.00
69895;DHT22;57172;52.034;5.090;2023-06-26T09:46:37;28.40;44.10
69895;DHT22;57172;52.034;5.090;2023-06-26T09:49:06;28.70;43.60
69895;DHT22;57172;52.034;5.090;2023-06-26T09:51:35;29.00;43.00
69895;DHT22;57172;52.034;5.090;2023-06-26T09:54:03;29.30;41.50
69895;DHT22;57172;52.034;5.090;2023-06-26T09:56:31;29.30;42.00
69895;DHT22;57172;52.034;5.090;2023-06-26T09:59:02;29.60;40.30
69895;DHT22;57172;52.034;5.090;2023-06-26T10:01:31;29.50;40.00
69895;DHT22;57172;52.034;5.090;2023-06-26T10:03:58;29.20;40.30
69895;DHT22;57172;52.034;5.090;2023-06-26T10:06:33;29.50;40.60
69895;DHT22;57172;52.034;5.090;2023-06-26T10:09:01;29.60;39.90
69895;DHT22;57172;52.034;5.090;2023-06-26T10:11:37;29.50;40.00
69895;DHT22;57172;52.034;5.090;2023-06-26T10:14:07;29.30;39.50
69895;DHT22;57172;52.034;5.090;2023-06-26T10:16:44;29.10;40.10
69895;DHT22;57172;52.034;5.090;2023-06-26T10:19:14;29.20;39.80
69895;DHT22;57172;52.034;5.090;2023-06-26T10:21:44;29.30;40.20
69895;DHT22;57172;52.034;5.090;2023-06-26T10:24:12;29.40;40.00
69895;DHT22;57172;52.034;5.090;2023-06-26T10:26:44;29.60;39.50
69895;DHT22;57172;52.034;5.090;2023-06-26T10:29:16;29.60;38.80
69895;DHT22;57172;52.034;5.090;2023-06-26T10:31:48;29.20;39.30
69895;DHT22;57172;52.034;5.090;2023-06-26T10:34:16;29.20;40.00
69895;DHT22;57172;52.034;5.090;2023-06-26T10:36:43;29.40;39.50
69895;DHT22;57172;52.034;5.090;2023-06-26T10:39:10;29.40;39.20
69895;DHT22;57172;52.034;5.090;2023-06-26T10:41:39;29.70;39.20
69895;DHT22;57172;52.034;5.090;2023-06-26T10:44:23;30.00;38.80
69895;DHT22;57172;52.034;5.090;2023-06-26T10:46:54;30.10;38.00
69895;DHT22;57172;52.034;5.090;2023-06-26T10:49:28;30.00;37.80
69895;DHT22;57172;52.034;5.090;2023-06-26T10:52:01;29.80;38.30
69895;DHT22;57172;52.034;5.090;2023-06-26T10:54:31;30.20;38.80
69895;DHT22;57172;52.034;5.090;2023-06-26T10:56:59;30.80;38.00
69895;DHT22;57172;52.034;5.090;2023-06-26T10:59:31;31.10;37.40
69895;DHT22;57172;52.034;5.090;2023-06-26T11:02:04;31.40;37.20
69895;DHT22;57172;52.034;5.090;2023-06-26T11:04:46;31.60;36.20
69895;DHT22;57172;52.034;5.090;2023-06-26T11:07:23;31.50;36.20
69895;DHT22;57172;52.034;5.090;2023-06-26T11:10:01;31.00;36.40
69895;DHT22;57172;52.034;5.090;2023-06-26T11:15:10;30.20;37.40
69895;DHT22;57172;52.034;5.090;2023-06-26T11:17:37;29.90;38.40
69895;DHT22;57172;52.034;5.090;2023-06-26T11:20:10;30.40;38.40
69895;DHT22;57172;52.034;5.090;2023-06-26T11:22:39;30.90;37.00
69895;DHT22;57172;52.034;5.090;2023-06-26T11:25:07;30.90;36.20
69895;DHT22;57172;52.034;5.090;2023-06-26T11:27:41;30.40;36.60
69895;DHT22;57172;52.034;5.090;2023-06-26T11:30:10;30.10;36.60
69895;DHT22;57172;52.034;5.090;2023-06-26T11:32:38;29.80;37.10
69895;DHT22;57172;52.034;5.090;2023-06-26T11:35:06;29.50;37.50
69895;DHT22;57172;52.034;5.090;2023-06-26T11:37:33;29.20;37.20
69895;DHT22;57172;52.034;5.090;2023-06-26T11:40:16;29.20;37.70
69895;DHT22;57172;52.034;5.090;2023-06-26T11:42:44;29.40;37.20
69895;DHT22;57172;52.034;5.090;2023-06-26T11:45:11;29.80;37.00
69895;DHT22;57172;52.034;5.090;2023-06-26T11:47:39;30.40;35.90
69895;DHT22;57172;52.034;5.090;2023-06-26T11:50:06;30.90;34.70
69895;DHT22;57172;52.034;5.090;2023-06-26T11:52:33;31.20;34.90
69895;DHT22;57172;52.034;5.090;2023-06-26T11:55:00;31.60;34.10
69895;DHT22;57172;52.034;5.090;2023-06-26T11:57:30;31.30;34.60
69895;DHT22;57172;52.034;5.090;2023-06-26T11:59:57;31.50;34.50
69895;DHT22;57172;52.034;5.090;2023-06-26T12:02:24;31.50;33.90
69895;DHT22;57172;52.034;5.090;2023-06-26T12:04:51;31.20;33.70
69895;DHT22;57172;52.034;5.090;2023-06-26T12:07:18;30.40;34.20
69895;DHT22;57172;52.034;5.090;2023-06-26T12:09:46;30.00;34.90
69895;DHT22;57172;52.034;5.090;2023-06-26T12:12:16;30.00;35.10
69895;DHT22;57172;52.034;5.090;2023-06-26T12:14:43;30.10;35.40
69895;DHT22;57172;52.034;5.090;2023-06-26T12:17:11;30.60;35.20
69895;DHT22;57172;52.034;5.090;2023-06-26T12:19:46;30.80;34.80
69895;DHT22;57172;52.034;5.090;2023-06-26T12:22:19;31.20;34.00
69895;DHT22;57172;52.034;5.090;2023-06-26T12:24:47;31.50;33.70
69895;DHT22;57172;52.034;5.090;2023-06-26T12:27:15;31.60;33.70
69895;DHT22;57172;52.034;5.090;2023-06-26T12:29:52;31.60;33.50
69895;DHT22;57172;52.034;5.090;2023-06-26T12:32:23;31.30;33.40
69895;DHT22;57172;52.034;5.090;2023-06-26T12:34:52;31.30;34.00
69895;DHT22;57172;52.034;5.090;2023-06-26T12:37:19;31.30;33.80
69895;DHT22;57172;52.034;5.090;2023-06-26T12:39:54;31.10;33.90
69895;DHT22;57172;52.034;5.090;2023-06-26T12:42:23;30.90;34.20
69895;DHT22;57172;52.034;5.090;2023-06-26T12:44:51;30.70;34.70
69895;DHT22;57172;52.034;5.090;2023-06-26T12:47:24;30.80;35.20
69895;DHT22;57172;52.034;5.090;2023-06-26T12:49:53;31.00;34.30
69895;DHT22;57172;52.034;5.090;2023-06-26T12:52:20;31.10;33.80
69895;DHT22;57172;52.034;5.090;2023-06-26T12:54:53;31.00;33.80
69895;DHT22;57172;52.034;5.090;2023-06-26T12:57:20;31.00;34.20
69895;DHT22;57172;52.034;5.090;2023-06-26T12:59:47;30.80;33.60
69895;DHT22;57172;52.034;5.090;2023-06-26T13:02:14;30.50;34.30
69895;DHT22;57172;52.034;5.090;2023-06-26T13:04:41;30.40;34.20
69895;DHT22;57172;52.034;5.090;2023-06-26T13:07:08;30.20;34.30
69895;DHT22;57172;52.034;5.090;2023-06-26T13:09:36;29.90;34.20
69895;DHT22;57172;52.034;5.090;2023-06-26T13:12:05;29.50;35.40
69895;DHT22;57172;52.034;5.090;2023-06-26T13:14:32;29.60;35.80
69895;DHT22;57172;52.034;5.090;2023-06-26T13:17:03;30.00;35.60
69895;DHT22;57172;52.034;5.090;2023-06-26T13:19:33;30.20;35.50
69895;DHT22;57172;52.034;5.090;2023-06-26T13:22:00;30.60;35.30
69895;DHT22;57172;52.034;5.090;2023-06-26T13:24:27;30.70;34.70
69895;DHT22;57172;52.034;5.090;2023-06-26T13:26:54;30.70;34.90
69895;DHT22;57172;52.034;5.090;2023-06-26T13:29:21;31.00;35.10
69895;DHT22;57172;52.034;5.090;2023-06-26T13:31:49;31.20;34.40
69895;DHT22;57172;52.034;5.090;2023-06-26T13:34:24;31.10;33.70
69895;DHT22;57172;52.034;5.090;2023-06-26T13:36:54;30.60;33.70
69895;DHT22;57172;52.034;5.090;2023-06-26T13:39:21;30.20;34.00
69895;DHT22;57172;52.034;5.090;2023-06-26T13:41:48;29.80;34.80
69895;DHT22;57172;52.034;5.090;2023-06-26T13:44:15;29.70;35.00
69895;DHT22;57172;52.034;5.090;2023-06-26T13:47:01;29.70;34.80
69895;DHT22;57172;52.034;5.090;2023-06-26T13:49:28;29.30;34.60
69895;DHT22;57172;52.034;5.090;2023-06-26T13:51:55;28.90;35.40
69895;DHT22;57172;52.034;5.090;2023-06-26T13:54:22;28.60;36.40
69895;DHT22;57172;52.034;5.090;2023-06-26T13:56:49;29.00;36.60
69895;DHT22;57172;52.034;5.090;2023-06-26T13:59:16;29.50;36.10
69895;DHT22;57172;52.034;5.090;2023-06-26T14:01:47;29.60;35.00
69895;DHT22;57172;52.034;5.090;2023-06-26T14:04:14;29.10;35.30
69895;DHT22;57172;52.034;5.090;2023-06-26T14:06:41;28.80;35.50
69895;DHT22;57172;52.034;5.090;2023-06-26T14:09:08;28.90;35.80
69895;DHT22;57172;52.034;5.090;2023-06-26T14:11:35;29.00;35.80
69895;DHT22;57172;52.034;5.090;2023-06-26T14:14:02;29.10;36.00
69895;DHT22;57172;52.034;5.090;2023-06-26T14:16:29;29.30;36.40
69895;DHT22;57172;52.034;5.090;2023-06-26T14:18:56;29.60;35.60
69895;DHT22;57172;52.034;5.090;2023-06-26T14:21:23;29.40;35.40
69895;DHT22;57172;52.034;5.090;2023-06-26T14:23:50;29.20;35.60
69895;DHT22;57172;52.034;5.090;2023-06-26T14:26:17;29.10;36.20
69895;DHT22;57172;52.034;5.090;2023-06-26T14:28:44;29.30;36.20
69895;DHT22;57172;52.034;5.090;2023-06-26T14:31:11;29.50;36.20
69895;DHT22;57172;52.034;5.090;2023-06-26T14:33:39;29.70;34.90
69895;DHT22;57172;52.034;5.090;2023-06-26T14:36:06;29.70;34.50
69895;DHT22;57172;52.034;5.090;2023-06-26T14:38:33;29.40;34.10
69895;DHT22;57172;52.034;5.090;2023-06-26T14:40:59;29.10;34.70
69895;DHT22;57172;52.034;5.090;2023-06-26T14:43:27;29.20;35.00
69895;DHT22;57172;52.034;5.090;2023-06-26T14:45:54;29.20;35.00
69895;DHT22;57172;52.034;5.090;2023-06-26T14:48:22;29.40;34.90
69895;DHT22;57172;52.034;5.090;2023-06-26T14:50:49;29.70;34.40
69895;DHT22;57172;52.034;5.090;2023-06-26T14:53:16;29.30;34.10
69895;DHT22;57172;52.034;5.090;2023-06-26T14:55:43;28.90;35.10
69895;DHT22;57172;52.034;5.090;2023-06-26T14:58:10;28.90;34.90
69895;DHT22;57172;52.034;5.090;2023-06-26T15:00:37;28.80;35.10
69895;DHT22;57172;52.034;5.090;2023-06-26T15:03:04;29.00;34.50
69895;DHT22;57172;52.034;5.090;2023-06-26T15:05:31;28.90;34.80
69895;DHT22;57172;52.034;5.090;2023-06-26T15:07:59;28.90;34.90
69895;DHT22;57172;52.034;5.090;2023-06-26T15:10:26;28.80;35.00
69895;DHT22;57172;52.034;5.090;2023-06-26T15:12:55;28.70;35.30
69895;DHT22;57172;52.034;5.090;2023-06-26T15:15:22;28.60;34.90
69895;DHT22;57172;52.034;5.090;2023-06-26T15:17:49;28.30;35.00
69895;DHT22;57172;52.034;5.090;2023-06-26T15:20:16;27.90;34.90
69895;DHT22;57172;52.034;5.090;2023-06-26T15:22:43;27.60;35.90
69895;DHT22;57172;52.034;5.090;2023-06-26T15:25:10;27.70;35.80
69895;DHT22;57172;52.034;5.090;2023-06-26T15:27:37;28.00;36.00
69895;DHT22;57172;52.034;5.090;2023-06-26T15:30:04;28.30;36.10
69895;DHT22;57172;52.034;5.090;2023-06-26T15:32:32;28.50;35.20
69895;DHT22;57172;52.034;5.090;2023-06-26T15:35:00;28.50;35.10
69895;DHT22;57172;52.034;5.090;2023-06-26T15:37:26;28.40;35.80
69895;DHT22;57172;52.034;5.090;2023-06-26T15:39:53;28.60;35.80